createdAt,value
2023-05-19T00:04:18.854Z,100232.38
2023-05-19T00:09:22.853Z,100223.56
2023-05-19T00:14:26.760Z,100226.31
2023-05-19T00:19:32.557Z,100230.50
2023-05-19T00:24:36.292Z,100232.22
2023-05-19T00:29:39.905Z,100239.47
2023-05-19T00:34:44.796Z,100242.13
2023-05-19T00:39:48.193Z,100245.59
2023-05-19T00:44:52.100Z,100251.66
2023-05-19T00:49:57.025Z,100258.09
2023-05-19T00:55:01.394Z,100257.38
2023-05-19T01:00:08.502Z,100254.78
2023-05-19T01:05:14.612Z,100258.03
2023-05-19T01:10:18.030Z,100242.59
2023-05-19T01:15:21.703Z,100257.59
2023-05-19T01:20:34.776Z,100254.09
2023-05-19T01:26:11.350Z,100255.91
2023-05-19T01:31:18.555Z,100264.88
2023-05-19T01:36:24.482Z,100249.34
2023-05-19T01:41:29.679Z,100265.94
2023-05-19T01:46:35.045Z,100271.22
2023-05-19T01:51:38.631Z,100271.34
2023-05-19T01:56:48.309Z,100274.13
2023-05-19T02:01:56.050Z,100265.66
2023-05-19T02:07:05.120Z,100273.19
2023-05-19T02:12:15.752Z,100274.56
2023-05-19T02:17:22.292Z,100273.13
2023-05-19T02:22:26.305Z,100274.41
2023-05-19T02:27:30.157Z,100284.03
2023-05-19T02:32:35.249Z,100284.59
2023-05-19T02:37:38.916Z,100283.75
2023-05-19T02:42:42.529Z,100287.56
2023-05-19T02:47:47.389Z,100292.25
2023-05-19T02:52:52.661Z,100289.47
2023-05-19T02:57:56.178Z,100295.28
2023-05-19T03:03:04.731Z,100302.44
2023-05-19T03:08:08.541Z,100305.38
2023-05-19T03:13:11.961Z,100313.66
2023-05-19T03:18:16.856Z,100312.81
2023-05-19T03:23:20.565Z,100323.88
2023-05-19T03:28:24.251Z,100326.66
2023-05-19T03:33:30.143Z,100329.97
2023-05-19T03:38:33.567Z,100346.50
2023-05-19T03:43:37.052Z,100356.22
2023-05-19T03:48:42.091Z,100354.53
2023-05-19T03:53:45.849Z,100364.59
2023-05-19T03:58:49.974Z,100372.78
2023-05-19T04:03:54.858Z,100375.38
2023-05-19T04:08:58.392Z,100381.78
2023-05-19T04:14:02.028Z,100383.78
2023-05-19T04:19:07.106Z,100379.66
2023-05-19T04:24:10.826Z,100384.00
2023-05-19T04:29:18.495Z,100385.63
2023-05-19T04:34:23.468Z,100382.53
2023-05-19T04:39:26.922Z,100382.94
2023-05-19T04:44:31.506Z,100392.13
2023-05-19T04:49:39.048Z,100386.16
2023-05-19T04:54:42.529Z,100388.59
2023-05-19T04:59:46.423Z,100395.88
2023-05-19T05:04:51.390Z,100398.94
2023-05-19T05:09:54.971Z,100404.38
2023-05-19T05:14:59.178Z,100404.56
2023-05-19T05:20:06.792Z,100415.28
2023-05-19T05:25:12.020Z,100416.88
2023-05-19T05:30:16.028Z,100427.97
2023-05-19T05:35:23.714Z,100430.94
2023-05-19T05:40:27.081Z,100435.16
2023-05-19T05:45:30.813Z,100440.47
2023-05-19T05:50:36.986Z,100451.28
2023-05-19T05:55:41.345Z,100458.13
2023-05-19T06:00:45.479Z,100451.00
2023-05-19T06:05:50.449Z,100457.13
2023-05-19T06:10:54.016Z,100454.13
2023-05-19T06:15:58.062Z,100469.56
2023-05-19T06:21:04.576Z,100466.63
2023-05-19T06:26:08.155Z,100468.84
2023-05-19T06:31:11.677Z,100465.50
2023-05-19T06:36:16.563Z,100476.66
2023-05-19T06:41:20.181Z,100476.09
2023-05-19T06:46:23.690Z,100489.91
2023-05-19T06:51:28.809Z,100486.34
2023-05-19T06:56:32.309Z,100484.28
2023-05-19T07:01:35.866Z,100489.09
2023-05-19T07:06:40.849Z,100494.03
2023-05-19T07:11:44.381Z,100505.19
2023-05-19T07:16:47.981Z,100495.88
2023-05-19T07:21:53.026Z,100504.81
2023-05-19T07:26:56.468Z,100499.44
2023-05-19T07:32:00.122Z,100507.78
2023-05-19T07:37:05.290Z,100499.09
2023-05-19T07:42:08.845Z,100498.09
2023-05-19T07:47:12.265Z,100503.69
2023-05-19T07:52:18.388Z,100505.25
2023-05-19T07:57:22.293Z,100502.72
2023-05-19T08:02:25.969Z,100514.66
2023-05-19T08:07:31.035Z,100511.91
2023-05-19T08:12:34.583Z,100505.56
2023-05-19T08:17:38.169Z,100504.56
2023-05-19T08:22:43.383Z,100500.19
2023-05-19T08:27:47.037Z,100505.59
2023-05-19T08:32:50.665Z,100499.72
2023-05-19T08:37:55.633Z,100495.53
2023-05-19T08:42:59.089Z,100501.31
2023-05-19T08:48:02.660Z,100500.94
2023-05-19T08:53:28.969Z,100503.84
2023-05-19T08:58:35.987Z,100503.06
2023-05-19T09:03:39.912Z,100500.00
2023-05-19T09:08:45.500Z,100498.78
2023-05-19T09:13:49.772Z,100495.41
2023-05-19T09:18:57.348Z,100493.59
2023-05-19T09:24:06.640Z,100482.00
2023-05-19T09:29:13.626Z,100482.59
2023-05-19T09:34:17.064Z,100478.00
2023-05-19T09:39:23.399Z,100469.31
2023-05-19T09:44:30.061Z,100463.34
2023-05-19T09:49:34.032Z,100457.84
2023-05-19T09:54:39.659Z,100456.91
2023-05-19T09:59:44.843Z,100452.91
2023-05-19T10:04:49.766Z,100452.09
2023-05-19T10:09:56.705Z,100463.38
2023-05-19T10:15:02.045Z,100464.22
2023-05-19T10:20:08.328Z,100449.78
2023-05-19T10:25:15.442Z,100444.44
2023-05-19T10:30:27.738Z,100440.66
2023-05-19T10:35:45.308Z,100433.00
2023-05-19T10:41:02.473Z,100439.50
2023-05-19T10:46:06.505Z,100425.81
2023-05-19T10:51:12.370Z,100433.84
2023-05-19T10:56:31.240Z,100421.00
2023-05-19T11:01:35.935Z,100423.66
2023-05-19T11:06:40.935Z,100428.09
2023-05-19T11:11:51.176Z,100431.41
2023-05-19T11:16:57.773Z,100428.56
2023-05-19T11:22:10.507Z,100427.00
2023-05-19T11:27:27.140Z,100423.84
2023-05-19T11:32:31.866Z,100432.28
2023-05-19T11:37:35.473Z,100441.06
2023-05-19T11:42:41.032Z,100438.59
2023-05-19T11:48:01.258Z,100433.06
2023-05-19T11:53:06.709Z,100435.78
2023-05-19T11:58:11.745Z,100433.97
2023-05-19T12:03:15.631Z,100447.50
2023-05-19T12:08:19.774Z,100437.00
2023-05-19T12:13:24.844Z,100439.16
2023-05-19T12:18:31.944Z,100436.47
2023-05-19T12:23:36.776Z,100437.63
2023-05-19T12:28:41.784Z,100439.13
2023-05-19T12:33:52.084Z,100435.09
2023-05-19T12:38:56.276Z,100431.34
2023-05-19T12:44:01.112Z,100437.13
2023-05-19T12:49:04.555Z,100446.28
2023-05-19T12:54:08.209Z,100447.59
2023-05-19T12:59:13.709Z,100438.69
2023-05-19T13:04:18.929Z,100444.34
2023-05-19T13:09:22.499Z,100437.09
2023-05-19T13:14:27.420Z,100439.72
2023-05-19T13:19:31.755Z,100430.13
2023-05-19T13:24:35.530Z,100436.59
2023-05-19T13:29:41.469Z,100438.19
2023-05-19T13:34:45.500Z,100447.44
2023-05-19T13:39:49.518Z,100439.88
2023-05-19T13:44:58.067Z,100438.09
2023-05-19T13:50:02.188Z,100443.81
2023-05-19T13:55:09.174Z,100445.16
2023-05-19T14:00:15.974Z,100438.88
2023-05-19T14:05:20.158Z,100441.31
2023-05-19T14:10:24.528Z,100447.94
2023-05-19T14:15:30.223Z,100439.16
2023-05-19T14:20:35.151Z,100450.31
2023-05-19T14:25:39.602Z,100453.03
2023-05-19T14:30:45.365Z,100445.84
2023-05-19T14:35:52.946Z,100446.59
2023-05-19T14:40:56.942Z,100441.22
2023-05-19T14:46:02.710Z,100444.66
2023-05-19T14:51:07.098Z,100437.78
2023-05-19T14:56:11.300Z,100447.56
2023-05-19T15:01:16.591Z,100436.78
2023-05-19T15:06:20.412Z,100439.56
2023-05-19T15:11:24.657Z,100441.59
2023-05-19T15:16:30.667Z,100439.69
2023-05-19T15:21:36.071Z,100445.03
2023-05-19T15:26:40.169Z,100458.88
2023-05-19T15:31:46.098Z,100451.44
2023-05-19T15:36:50.676Z,100450.38
2023-05-19T15:41:54.962Z,100447.34
2023-05-19T15:47:00.329Z,100454.69
2023-05-19T15:52:05.427Z,100456.69
2023-05-19T15:57:09.765Z,100457.69
2023-05-19T16:02:16.869Z,100457.66
2023-05-19T16:07:25.205Z,100455.16
2023-05-19T16:12:29.995Z,100470.31
2023-05-19T16:17:35.753Z,100466.13
2023-05-19T16:22:41.943Z,100468.16
2023-05-19T16:27:46.189Z,100466.16
2023-05-19T16:32:54.058Z,100466.09
2023-05-19T16:37:58.524Z,100467.81
2023-05-19T16:43:04.153Z,100471.97
2023-05-19T16:48:11.242Z,100472.25
2023-05-19T16:53:15.965Z,100474.19
2023-05-19T16:58:19.889Z,100454.22
2023-05-19T17:03:25.805Z,100479.41
2023-05-19T17:08:30.032Z,100485.78
2023-05-19T17:13:36.974Z,100494.72
2023-05-19T17:18:44.107Z,100491.72
2023-05-19T17:23:48.378Z,100499.66
2023-05-19T17:28:52.604Z,100493.81
2023-05-19T17:34:00.417Z,100497.59
2023-05-19T17:39:04.669Z,100499.19
2023-05-19T17:44:09.199Z,100510.88
2023-05-19T17:49:15.780Z,100511.69
2023-05-19T17:54:20.340Z,100521.44
2023-05-19T17:59:24.991Z,100528.41
2023-05-19T18:04:31.989Z,100528.66
2023-05-19T18:09:39.204Z,100533.22
2023-05-19T18:14:44.742Z,100539.63
2023-05-19T18:19:50.804Z,100534.00
2023-05-19T18:24:55.462Z,100542.75
2023-05-19T18:30:00.977Z,100558.31
2023-05-19T18:35:08.402Z,100559.47
2023-05-19T18:40:13.020Z,100560.81
2023-05-19T18:45:17.753Z,100559.47
2023-05-19T18:50:23.140Z,100571.03
2023-05-19T18:55:27.552Z,100571.28
2023-05-19T19:00:32.077Z,100576.81
2023-05-19T19:05:37.318Z,100576.03
2023-05-19T19:10:41.252Z,100583.50
2023-05-19T19:15:45.184Z,100579.22
2023-05-19T19:20:50.672Z,100589.88
2023-05-19T19:25:56.816Z,100588.03
2023-05-19T19:31:01.028Z,100595.75
2023-05-19T19:36:06.718Z,100604.19
2023-05-19T19:41:10.640Z,100605.75
2023-05-19T19:46:14.394Z,100608.81
2023-05-19T19:51:20.196Z,100614.38
2023-05-19T19:56:25.355Z,100620.97
2023-05-19T20:01:29.685Z,100613.91
2023-05-19T20:06:34.693Z,100621.09
2023-05-19T20:11:38.454Z,100619.88
2023-05-19T20:16:42.052Z,100627.63
2023-05-19T20:21:47.205Z,100631.94
2023-05-19T20:26:50.717Z,100646.06
2023-05-19T20:31:56.023Z,100644.78
2023-05-19T20:37:02.449Z,100660.31
2023-05-19T20:42:08.017Z,100664.16
2023-05-19T20:47:11.806Z,100658.94
2023-05-19T20:52:16.946Z,100650.84
2023-05-19T20:57:20.809Z,100655.56
2023-05-19T21:02:24.493Z,100659.97
2023-05-19T21:07:29.406Z,100668.06
2023-05-19T21:12:34.465Z,100666.44
2023-05-19T21:17:38.202Z,100671.94
2023-05-19T21:22:43.265Z,100653.78
2023-05-19T21:27:47.648Z,100671.00
2023-05-19T21:32:51.105Z,100674.41
2023-05-19T21:37:55.883Z,100674.28
2023-05-19T21:42:59.370Z,100672.50
2023-05-19T21:48:02.979Z,100674.22
2023-05-19T21:53:08.146Z,100675.84
2023-05-19T21:58:11.661Z,100670.28
2023-05-19T22:03:15.291Z,100675.31
2023-05-19T22:08:21.187Z,100676.69
2023-05-19T22:13:24.976Z,100677.22
2023-05-19T22:18:28.465Z,100683.94
2023-05-19T22:23:33.746Z,100685.28
2023-05-19T22:28:37.228Z,100689.25
2023-05-19T22:33:40.668Z,100692.31
2023-05-19T22:38:45.731Z,100690.88
2023-05-19T22:43:49.223Z,100690.19
2023-05-19T22:48:52.995Z,100687.75
2023-05-19T22:53:57.844Z,100688.84
2023-05-19T22:59:01.607Z,100684.69
2023-05-19T23:04:05.474Z,100682.19
2023-05-19T23:09:10.372Z,100680.50
2023-05-19T23:14:13.748Z,100675.34
2023-05-19T23:19:17.688Z,100671.09
2023-05-19T23:24:22.700Z,100670.41
2023-05-19T23:29:26.359Z,100674.09
2023-05-19T23:34:29.821Z,100669.81
2023-05-19T23:39:34.718Z,100669.94
2023-05-19T23:44:38.144Z,100664.75
2023-05-19T23:49:41.879Z,100663.97
2023-05-19T23:54:46.833Z,100656.13
2023-05-19T23:59:50.362Z,100650.94
